Time;durP1;ratioP1;P1;durP2;ratioP2;P2;SDS_P1;SDS_P2;PMS_P1;PMS_P2;Temp;Humidity;BMP_temperature;BMP_pressure;BME280_temperature;BME280_humidity;BME280_pressure;Samples;Min_cycle;Max_cycle;Signal;HPM_P1;HPM_P2
2022/05/23 00:02:00;;;;;;;5.38;2.60;;;14.60;99.90;;;;;;5027262;28;20497;-66
2022/05/23 00:04:26;;;;;;;5.47;2.70;;;14.60;99.90;;;;;;5024222;28;20044;-67
2022/05/23 00:06:54;;;;;;;4.90;2.55;;;14.50;99.90;;;;;;5024034;28;20041;-67
2022/05/23 00:09:20;;;;;;;3.97;2.30;;;14.50;99.90;;;;;;5025867;28;20060;-67
2022/05/23 00:11:46;;;;;;;5.18;2.33;;;14.50;99.90;;;;;;5025803;28;20042;-67
2022/05/23 00:14:11;;;;;;;7.05;2.50;;;14.50;99.90;;;;;;5024326;28;20111;-67
2022/05/23 00:16:41;;;;;;;3.63;2.08;;;14.40;99.90;;;;;;5026541;28;20056;-67
2022/05/23 00:19:09;;;;;;;4.70;2.38;;;14.40;99.90;;;;;;5025120;28;20142;-66
2022/05/23 00:21:35;;;;;;;5.25;2.10;;;14.30;99.90;;;;;;5029392;28;20033;-67
2022/05/23 00:24:01;;;;;;;4.18;2.17;;;14.30;99.90;;;;;;5026108;28;20507;-67
2022/05/23 00:26:26;;;;;;;5.50;2.30;;;14.30;99.90;;;;;;5025357;28;20037;-67
2022/05/23 00:28:52;;;;;;;3.25;1.95;;;14.20;99.90;;;;;;5028390;28;20044;-67
2022/05/23 00:31:19;;;;;;;4.90;2.28;;;14.20;99.90;;;;;;5026652;28;20050;-66
2022/05/23 00:36:32;;;;;;;4.40;2.17;;;14.10;99.90;;;;;;5028318;28;20069;-68
2022/05/23 00:38:58;;;;;;;6.55;2.78;;;14.10;99.90;;;;;;5024176;28;20428;-68
2022/05/23 00:44:20;;;;;;;4.00;1.90;;;14.10;99.90;;;;;;5023111;28;20057;-68
2022/05/23 00:46:58;;;;;;;4.78;1.95;;;14.10;99.90;;;;;;5027022;28;20057;-68
2022/05/23 00:49:33;;;;;;;6.38;2.13;;;14.00;99.90;;;;;;5024507;28;20111;-68
2022/05/23 00:52:03;;;;;;;2.50;1.70;;;14.00;99.90;;;;;;5025600;28;20080;-68
2022/05/23 00:54:41;;;;;;;5.38;2.08;;;14.00;99.90;;;;;;5024886;28;20096;-67
2022/05/23 00:57:11;;;;;;;8.13;2.42;;;14.00;99.90;;;;;;5024417;28;20120;-68
2022/05/23 00:59:37;;;;;;;4.40;1.90;;;;;;;;;;5025770;28;20092;-67
2022/05/23 01:02:03;;;;;;;3.30;1.70;;;13.90;99.90;;;;;;5022573;28;20034;-68
2022/05/23 01:04:30;;;;;;;5.53;2.45;;;13.80;99.90;;;;;;5027523;28;20132;-67
2022/05/23 01:06:56;;;;;;;4.22;1.98;;;13.80;99.90;;;;;;5027678;28;20076;-67
2022/05/23 01:09:25;;;;;;;4.13;2.13;;;13.80;99.90;;;;;;5024571;28;20484;-68
2022/05/23 01:11:52;;;;;;;4.10;2.00;;;13.80;99.90;;;;;;5022854;28;20131;-67
2022/05/23 01:14:17;;;;;;;2.95;2.00;;;13.80;99.90;;;;;;5024295;28;20041;-68
2022/05/23 01:16:43;;;;;;;3.55;2.10;;;13.70;99.90;;;;;;5025173;28;20160;-67
2022/05/23 01:19:08;;;;;;;3.92;1.75;;;13.70;99.90;;;;;;5025801;28;20037;-67
2022/05/23 01:21:53;;;;;;;4.82;2.08;;;13.70;99.90;;;;;;5025820;28;20046;-67
2022/05/23 01:24:29;;;;;;;4.13;2.10;;;13.70;99.90;;;;;;5023754;28;20049;-66
2022/05/23 01:26:57;;;;;;;2.10;1.60;;;13.70;99.90;;;;;;5025173;28;20152;-66
2022/05/23 01:29:23;;;;;;;3.88;1.95;;;13.80;99.90;;;;;;5025628;28;20454;-67
2022/05/23 01:31:49;;;;;;;5.82;2.20;;;13.80;99.90;;;;;;5029935;28;20105;-67
2022/05/23 01:34:14;;;;;;;4.15;1.80;;;13.80;99.90;;;;;;5030669;28;20428;-67
2022/05/23 01:36:40;;;;;;;5.10;1.95;;;13.80;99.90;;;;;;5026983;28;20041;-67
2022/05/23 01:39:05;;;;;;;3.95;1.83;;;13.80;99.90;;;;;;5032806;28;20046;-67
2022/05/23 01:41:31;;;;;;;3.90;1.95;;;13.80;99.90;;;;;;5025478;28;20475;-68
2022/05/23 01:43:57;;;;;;;5.38;1.88;;;13.90;99.90;;;;;;5024651;28;20065;-68
2022/05/23 01:46:23;;;;;;;3.38;1.60;;;13.90;99.90;;;;;;5025576;28;20179;-68
2022/05/23 01:48:48;;;;;;;3.67;1.85;;;13.90;99.90;;;;;;5024245;28;20057;-68
2022/05/23 01:51:14;;;;;;;6.35;2.13;;;13.90;99.90;;;;;;5068417;22;20081;-46
2022/05/23 01:53:41;;;;;;;4.68;2.08;;;13.90;99.90;;;;;;5024234;28;20129;-45
2022/05/23 01:56:07;;;;;;;4.10;2.17;;;13.90;99.90;;;;;;5021424;28;20060;-46
2022/05/23 02:01:17;;;;;;;3.13;1.73;;;13.90;99.90;;;;;;5025820;28;20554;-47
2022/05/23 02:03:45;;;;;;;3.45;1.90;;;13.90;99.90;;;;;;5026637;28;20041;-45
2022/05/23 02:06:12;;;;;;;3.47;1.88;;;13.90;99.90;;;;;;5022799;28;20047;-49
2022/05/23 02:08:38;;;;;;;5.55;1.90;;;13.90;99.90;;;;;;5023470;28;20064;-45
2022/05/23 02:11:06;;;;;;;5.22;2.22;;;13.90;99.90;;;;;;5022481;28;20488;-46
2022/05/23 02:13:39;;;;;;;;;;;13.90;99.90;;;;;;5024048;28;20108;-46
2022/05/23 02:16:05;;;;;;;6.22;2.03;;;13.90;99.90;;;;;;5022474;28;19920;-45
2022/05/23 02:18:30;;;;;;;4.22;2.03;;;13.90;99.90;;;;;;5022104;28;20044;-46
2022/05/23 02:20:56;;;;;;;7.38;2.10;;;13.80;99.90;;;;;;5026017;28;20128;-45
2022/05/23 02:23:22;;;;;;;2.97;1.80;;;13.80;99.90;;;;;;5024951;28;20130;-44
2022/05/23 02:25:48;;;;;;;5.28;2.10;;;13.80;99.90;;;;;;5024608;28;20038;-45
2022/05/23 02:28:13;;;;;;;3.97;2.00;;;13.80;99.90;;;;;;5035872;28;20136;-45
2022/05/23 02:30:39;;;;;;;3.15;1.88;;;13.80;99.90;;;;;;5027697;28;20477;-46
2022/05/23 02:33:05;;;;;;;5.05;2.35;;;13.80;99.90;;;;;;5029547;28;20069;-45
2022/05/23 02:35:31;;;;;;;4.22;2.08;;;13.80;99.90;;;;;;5027443;28;20475;-46
2022/05/23 02:37:56;;;;;;;4.15;1.80;;;13.80;99.90;;;;;;5033661;28;20041;-48
2022/05/23 02:40:22;;;;;;;4.35;1.98;;;13.80;99.90;;;;;;5027136;28;20041;-47
2022/05/23 02:42:48;;;;;;;5.25;2.00;;;13.80;99.90;;;;;;5026541;28;20503;-47
2022/05/23 02:45:14;;;;;;;4.63;2.10;;;13.80;99.90;;;;;;5028014;28;20588;-46
2022/05/23 02:47:40;;;;;;;4.13;2.15;;;13.80;99.90;;;;;;5027974;28;20065;-45
2022/05/23 02:50:07;;;;;;;3.80;1.88;;;13.80;99.90;;;;;;5025594;28;20041;-45
2022/05/23 02:52:32;;;;;;;7.28;2.10;;;13.80;99.90;;;;;;5024601;28;20045;-46
2022/05/23 02:54:58;;;;;;;5.43;2.53;;;13.80;99.90;;;;;;5029031;28;20045;-46
2022/05/23 02:57:24;;;;;;;3.72;1.83;;;13.80;99.90;;;;;;5028129;28;20037;-46
2022/05/23 02:59:49;;;;;;;3.88;1.83;;;13.80;99.90;;;;;;5024590;28;20518;-46
2022/05/23 03:04:59;;;;;;;5.13;1.80;;;13.80;99.90;;;;;;5027495;28;20509;-46
2022/05/23 03:07:25;;;;;;;4.00;2.00;;;13.80;99.90;;;;;;5029019;28;20116;-46
2022/05/23 03:09:50;;;;;;;2.25;1.90;;;13.70;99.90;;;;;;5023787;28;20530;-45
2022/05/23 03:12:16;;;;;;;6.03;2.20;;;13.70;99.90;;;;;;5023604;28;20099;-45
2022/05/23 03:14:41;;;;;;;4.95;2.00;;;13.70;99.90;;;;;;5024193;28;20042;-46
2022/05/23 03:17:08;;;;;;;3.03;2.47;;;13.70;99.90;;;;;;5027120;28;20224;-44
2022/05/23 03:19:38;;;;;;;5.25;2.30;;;13.70;99.90;;;;;;5026550;28;20390;-47
2022/05/23 03:27:36;;;;;;;6.10;2.17;;;13.70;99.90;;;;;;5027869;28;20509;-45
2022/05/23 03:30:04;;;;;;;4.93;2.20;;;13.60;99.90;;;;;;5024719;28;20499;-46
2022/05/23 03:32:29;;;;;;;4.07;2.10;;;13.60;99.90;;;;;;5025641;28;20103;-46
2022/05/23 03:34:55;;;;;;;3.42;2.30;;;13.60;99.90;;;;;;5028244;28;20041;-45
2022/05/23 03:37:21;;;;;;;2.97;2.30;;;13.70;99.90;;;;;;5025729;28;20128;-44
2022/05/23 03:39:47;;;;;;;5.35;2.42;;;13.60;99.90;;;;;;5020857;28;20064;-44
2022/05/23 03:42:13;;;;;;;3.45;2.20;;;13.60;99.90;;;;;;5024582;28;20045;-45
2022/05/23 03:44:39;;;;;;;3.85;2.05;;;13.60;99.90;;;;;;5028818;28;20103;-48
2022/05/23 03:47:05;;;;;;;4.90;2.30;;;13.60;99.90;;;;;;5028005;28;20037;-46
2022/05/23 03:49:32;;;;;;;5.05;2.53;;;13.60;99.90;;;;;;5021923;28;20456;-45
2022/05/23 03:51:58;;;;;;;7.65;2.45;;;13.60;99.90;;;;;;5028028;28;20050;-48
2022/05/23 03:54:25;;;;;;;4.45;2.22;;;13.60;99.90;;;;;;5025238;28;20117;-45
2022/05/23 03:56:50;;;;;;;4.05;2.42;;;13.60;99.90;;;;;;5021537;28;20449;-44
2022/05/23 03:59:16;;;;;;;5.13;2.83;;;13.60;99.90;;;;;;5021958;28;20096;-45
2022/05/23 04:01:42;;;;;;;5.57;2.78;;;13.60;99.90;;;;;;5021263;28;20049;-48
2022/05/23 04:04:07;;;;;;;5.25;2.40;;;13.60;99.90;;;;;;5025372;28;20103;-46
2022/05/23 04:06:35;;;;;;;5.40;2.30;;;13.60;99.90;;;;;;5027259;28;20125;-44
2022/05/23 04:09:01;;;;;;;3.67;2.28;;;13.60;99.90;;;;;;5018723;28;20076;-48
2022/05/23 04:11:26;;;;;;;4.20;2.83;;;13.60;99.90;;;;;;5025290;28;20073;-45
2022/05/23 04:13:52;;;;;;;5.13;2.40;;;13.60;99.90;;;;;;5024992;28;20123;-45
2022/05/23 04:16:18;;;;;;;3.72;2.58;;;13.70;99.90;;;;;;5021808;28;20115;-44
2022/05/23 04:18:43;;;;;;;4.57;2.78;;;13.70;99.90;;;;;;5019948;28;20041;-44
2022/05/23 04:21:09;;;;;;;6.60;2.83;;;13.80;99.90;;;;;;5023269;28;20133;-46
2022/05/23 04:23:34;;;;;;;4.68;2.60;;;13.70;99.90;;;;;;5022230;28;20132;-45
2022/05/23 04:26:06;;;;;;;4.70;2.50;;;13.80;99.90;;;;;;5021850;28;20095;-47
2022/05/23 04:28:32;;;;;;;4.60;2.50;;;13.80;99.90;;;;;;5019505;28;20044;-46
2022/05/23 04:30:58;;;;;;;3.65;2.50;;;13.90;99.90;;;;;;5027939;28;20109;-45
2022/05/23 04:36:09;;;;;;;5.78;3.00;;;14.10;99.90;;;;;;5024325;28;20516;-44
2022/05/23 04:38:35;;;;;;;5.90;2.50;;;14.10;99.90;;;;;;5021644;28;20069;-45
2022/05/23 04:41:00;;;;;;;4.55;2.63;;;14.20;99.90;;;;;;5021662;28;20045;-45
2022/05/23 04:43:26;;;;;;;6.28;2.75;;;14.30;99.90;;;;;;5022743;28;20045;-46
2022/05/23 04:45:52;;;;;;;6.50;2.75;;;14.40;99.90;;;;;;5026542;28;20116;-45
2022/05/23 04:51:02;;;;;;;3.65;2.65;;;14.40;99.90;;;;;;5026495;28;20048;-46
2022/05/23 04:53:27;;;;;;;3.63;2.67;;;14.40;99.90;;;;;;5025640;28;20053;-45
2022/05/23 04:55:53;;;;;;;6.70;3.08;;;14.40;99.90;;;;;;5022875;28;20069;-46
2022/05/23 04:58:18;;;;;;;5.07;2.72;;;14.50;99.90;;;;;;5024573;28;20439;-43
2022/05/23 05:00:44;;;;;;;4.65;2.90;;;14.40;99.90;;;;;;5024947;28;20106;-46
2022/05/23 05:03:09;;;;;;;3.22;2.78;;;14.50;99.90;;;;;;5022823;28;20337;-48
2022/05/23 05:05:35;;;;;;;4.07;2.85;;;14.50;99.90;;;;;;5026210;28;20033;-45
2022/05/23 05:08:02;;;;;;;7.32;2.95;;;14.50;99.90;;;;;;5018063;28;20116;-44
2022/05/23 05:10:28;;;;;;;4.63;2.85;;;14.60;99.90;;;;;;5023065;28;20110;-49
2022/05/23 05:12:55;;;;;;;5.60;3.30;;;14.70;99.90;;;;;;5022025;28;20046;-44
2022/05/23 05:15:22;;;;;;;5.35;2.95;;;14.80;99.90;;;;;;5020172;28;20038;-45
2022/05/23 05:17:48;;;;;;;7.07;3.40;;;15.00;99.90;;;;;;5023679;28;20033;-46
2022/05/23 05:20:15;;;;;;;8.18;3.38;;;15.40;99.90;;;;;;5023320;28;20044;-45
2022/05/23 05:22:40;;;;;;;7.60;3.53;;;15.80;99.90;;;;;;5022910;28;20531;-44
2022/05/23 05:25:09;;;;;;;7.30;3.20;;;15.90;99.90;;;;;;5018150;28;20145;-45
2022/05/23 05:27:35;;;;;;;5.13;3.35;;;16.50;99.90;;;;;;5024996;28;20053;-46
2022/05/23 05:30:02;;;;;;;6.70;3.40;;;17.10;99.90;;;;;;5021443;28;20060;-49
2022/05/23 05:32:39;;;;;;;8.20;4.00;;;17.50;99.90;;;;;;5021623;28;20408;-44
2022/05/23 05:35:20;;;;;;;5.85;2.92;;;18.00;99.90;;;;;;5019682;28;20107;-45
2022/05/23 05:37:51;;;;;;;5.72;3.13;;;18.70;99.90;;;;;;5020673;28;20164;-46
2022/05/23 05:40:20;;;;;;;7.47;3.17;;;19.70;99.90;;;;;;5023000;28;20049;-45
2022/05/23 05:42:50;;;;;;;3.47;3.17;;;20.00;99.90;;;;;;5023868;28;20052;-46
2022/05/23 05:45:22;;;;;;;6.63;3.30;;;20.10;99.90;;;;;;5022160;28;20053;-46
2022/05/23 05:47:50;;;;;;;4.75;3.08;;;20.30;99.90;;;;;;5016516;28;20102;-47
2022/05/23 05:50:21;;;;;;;5.63;3.50;;;20.20;99.90;;;;;;4988594;28;1020890;-47
2022/05/23 05:52:48;;;;;;;7.22;3.35;;;20.00;99.90;;;;;;5021162;28;20049;-45
2022/05/23 05:55:13;;;;;;;5.25;3.40;;;20.40;99.90;;;;;;5022055;28;20069;-46
2022/05/23 05:57:39;;;;;;;3.88;3.10;;;20.40;99.90;;;;;;5023098;28;20038;-45
2022/05/23 06:00:07;;;;;;;4.30;3.40;;;20.90;99.90;;;;;;5021502;28;20056;-45
2022/05/23 06:02:33;;;;;;;5.18;3.67;;;20.70;99.90;;;;;;5026808;28;20038;-47
2022/05/23 06:04:58;;;;;;;5.88;3.50;;;20.10;99.90;;;;;;5027884;28;20042;-46
2022/05/23 06:12:58;;;;;;;5.40;3.30;;;20.50;99.90;;;;;;5029517;28;20053;-46
2022/05/23 06:15:24;;;;;;;7.32;3.90;;;21.00;99.90;;;;;;5024685;28;20057;-48
2022/05/23 06:17:52;;;;;;;8.13;3.78;;;21.50;99.90;;;;;;5023654;28;20033;-46
2022/05/23 06:20:19;;;;;;;6.32;3.78;;;21.30;99.90;;;;;;5026986;28;20085;-46
2022/05/23 06:22:45;;;;;;;16.90;4.07;;;21.50;99.90;;;;;;5024190;28;20034;-45
2022/05/23 06:25:13;;;;;;;6.35;3.53;;;21.80;99.90;;;;;;5022426;28;20144;-45
2022/05/23 06:27:40;;;;;;;5.20;3.13;;;21.50;99.90;;;;;;5027294;28;20037;-46
2022/05/23 06:30:07;;;;;;;5.28;3.70;;;21.60;99.90;;;;;;5023621;28;20037;-49
2022/05/23 06:32:33;;;;;;;;;;;21.50;99.90;;;;;;5026027;28;20093;-46
2022/05/23 06:34:59;;;;;;;4.90;4.07;;;21.30;99.90;;;;;;5030302;28;19933;-47
2022/05/23 06:37:25;;;;;;;5.70;3.75;;;21.40;99.90;;;;;;5026453;28;20056;-46
2022/05/23 06:39:50;;;;;;;6.43;3.80;;;21.20;99.90;;;;;;5025778;28;20041;-47
2022/05/23 06:42:16;;;;;;;7.30;3.58;;;21.90;99.90;;;;;;5024215;28;20033;-44
2022/05/23 06:44:42;;;;;;;5.90;3.70;;;22.10;99.90;;;;;;5024829;28;20042;-46
2022/05/23 06:47:07;;;;;;;5.03;3.50;;;22.10;99.90;;;;;;5025303;28;20038;-44
2022/05/23 06:49:33;;;;;;;5.60;3.75;;;21.90;99.90;;;;;;5025256;28;20041;-44
2022/05/23 06:51:59;;;;;;;4.57;3.65;;;22.10;99.90;;;;;;5024635;28;20503;-47
2022/05/23 06:54:24;;;;;;;5.68;3.90;;;22.10;99.90;;;;;;5024763;28;20511;-46
2022/05/23 06:56:50;;;;;;;6.68;3.85;;;22.60;99.80;;;;;;5021992;28;20124;-46
2022/05/23 06:59:18;;;;;;;7.75;3.67;;;22.60;97.30;;;;;;5023920;28;20044;-46
2022/05/23 07:01:44;;;;;;;7.05;3.58;;;22.80;98.70;;;;;;5019422;28;20123;-47
2022/05/23 07:04:10;;;;;;;6.93;3.87;;;23.00;98.20;;;;;;5026897;28;20045;-46
2022/05/23 07:12:20;;;;;;;6.22;3.47;;;22.70;98.00;;;;;;5018745;28;20046;-46
2022/05/23 07:14:46;;;;;;;6.65;4.30;;;22.30;97.80;;;;;;5026988;28;20042;-45
2022/05/23 07:17:12;;;;;;;4.82;3.20;;;21.90;98.00;;;;;;5028872;28;20521;-46
2022/05/23 07:19:39;;;;;;;5.63;3.60;;;21.80;99.90;;;;;;5019346;28;20076;-44
2022/05/23 07:22:05;;;;;;;5.68;3.88;;;21.40;99.90;;;;;;5015688;28;20063;-45
2022/05/23 07:24:31;;;;;;;5.55;4.00;;;21.60;99.90;;;;;;5024199;28;20045;-45
2022/05/23 07:26:57;;;;;;;6.10;4.25;;;21.10;99.90;;;;;;5010729;28;20102;-47
2022/05/23 07:29:23;;;;;;;5.93;3.95;;;21.30;99.90;;;;;;5019789;28;20156;-45
2022/05/23 07:31:49;;;;;;;4.70;4.10;;;21.10;99.90;;;;;;5022899;28;20091;-46
2022/05/23 07:34:15;;;;;;;6.97;3.90;;;21.40;99.90;;;;;;5019789;28;20050;-47
2022/05/23 07:36:41;;;;;;;5.82;3.83;;;21.30;99.90;;;;;;5021964;28;20037;-45
2022/05/23 07:39:08;;;;;;;5.18;3.72;;;21.50;99.90;;;;;;5022771;28;20088;-48
2022/05/23 07:41:34;;;;;;;4.75;3.60;;;21.30;99.90;;;;;;5011849;28;20080;-46
2022/05/23 07:44:00;;;;;;;6.15;3.83;;;21.40;99.90;;;;;;5029948;28;20546;-46
2022/05/23 07:46:25;;;;;;;8.05;4.00;;;21.40;99.90;;;;;;5021311;28;20034;-46
2022/05/23 07:48:51;;;;;;;5.45;4.00;;;21.60;99.90;;;;;;5030403;28;20095;-48
2022/05/23 07:51:19;;;;;;;5.68;4.10;;;21.30;99.90;;;;;;5027829;28;20053;-45
2022/05/23 08:02:01;;;;;;;7.35;4.43;;;22.00;99.90;;;;;;5024254;28;20045;-46
2022/05/23 08:04:27;;;;;;;6.07;4.25;;;21.90;99.90;;;;;;5023926;28;20053;-46
2022/05/23 08:06:53;;;;;;;5.20;3.80;;;21.90;99.90;;;;;;5023115;28;20168;-45
2022/05/23 08:09:19;;;;;;;7.97;4.15;;;21.70;99.90;;;;;;5023888;28;21718;-46
2022/05/23 08:11:48;;;;;;;7.30;3.92;;;21.60;99.90;;;;;;5024021;28;20045;-49
2022/05/23 08:14:14;;;;;;;6.45;4.10;;;21.80;99.90;;;;;;5022372;28;20128;-45
2022/05/23 08:16:40;;;;;;;6.63;4.45;;;21.60;99.90;;;;;;5024168;28;20121;-45
2022/05/23 08:19:07;;;;;;;5.28;3.95;;;21.70;99.90;;;;;;5027312;28;20513;-46
2022/05/23 08:21:33;;;;;;;7.82;3.95;;;21.90;99.90;;;;;;5025611;28;20365;-45
2022/05/23 08:23:59;;;;;;;5.45;3.53;;;22.20;99.90;;;;;;5026464;28;20038;-47
2022/05/23 08:26:25;;;;;;;4.72;3.30;;;22.20;99.90;;;;;;5025174;28;20044;-45
2022/05/23 08:28:51;;;;;;;5.72;3.53;;;22.40;99.90;;;;;;5025909;28;20230;-46
2022/05/23 08:31:18;;;;;;;4.97;3.47;;;22.90;99.90;;;;;;5028708;28;20467;-48
2022/05/23 08:33:43;;;;;;;4.78;3.40;;;22.90;99.90;;;;;;5026576;28;20463;-46
2022/05/23 08:36:10;;;;;;;6.00;3.17;;;23.20;99.90;;;;;;5042734;28;20049;-47
2022/05/23 08:38:36;;;;;;;4.97;3.53;;;23.50;99.90;;;;;;5028915;28;20045;-47
2022/05/23 08:52:21;;;;;;;5.13;3.20;;;23.90;96.50;;;;;;5091293;27;20440;-46
2022/05/23 08:55:46;;;;;;;3.28;2.38;;;24.00;96.80;;;;;;5094787;28;20123;-46
2022/05/23 08:58:24;;;;;;;4.90;2.45;;;24.10;95.50;;;;;;5054170;28;20044;-47
2022/05/23 09:01:04;;;;;;;3.85;2.30;;;24.20;93.50;;;;;;5057045;28;20068;-48
2022/05/23 09:03:35;;;;;;;4.22;2.67;;;24.60;92.20;;;;;;5055642;28;21410;-46
2022/05/23 09:06:08;;;;;;;3.10;2.28;;;24.60;89.70;;;;;;5054812;28;20061;-46
2022/05/23 09:08:44;;;;;;;4.28;2.38;;;24.70;86.40;;;;;;5055921;28;20151;-49
2022/05/23 09:11:20;;;;;;;5.53;2.40;;;24.80;85.30;;;;;;5043877;28;20045;-46
2022/05/23 09:13:45;;;;;;;6.30;2.45;;;24.70;85.00;;;;;;5055685;28;20116;-46
2022/05/23 09:16:13;;;;;;;4.85;2.50;;;24.50;86.40;;;;;;5063630;28;20132;-45
2022/05/23 09:18:59;;;;;;;6.60;2.22;;;24.50;85.60;;;;;;5045544;28;20395;-46
2022/05/23 09:22:12;;;;;;;4.95;2.50;;;24.40;81.90;;;;;;5061252;28;20128;-46
2022/05/23 09:24:11;;;;;;;5.97;2.55;;;24.50;82.80;;;;;;5049099;28;20045;-47
2022/05/23 09:26:38;;;;;;;5.13;2.92;;;24.80;84.50;;;;;;5050958;28;20079;-47
2022/05/23 09:29:04;;;;;;;4.82;2.53;;;24.80;85.70;;;;;;5073858;28;20060;-45
2022/05/23 09:31:48;;;;;;;6.07;2.63;;;24.80;83.30;;;;;;5080613;28;20064;-46
2022/05/23 09:34:44;;;;;;;6.45;2.97;;;24.50;83.70;;;;;;5078548;28;20512;-48
2022/05/23 09:37:21;;;;;;;4.15;2.35;;;24.50;85.00;;;;;;5087699;28;20044;-50
2022/05/23 09:39:56;;;;;;;6.25;2.80;;;24.60;84.10;;;;;;5084746;28;20046;-50
2022/05/23 09:48:11;;;;;;;4.45;3.20;;;25.30;84.80;;;;;;5074680;28;20052;-46
2022/05/23 09:50:41;;;;;;;4.68;3.20;;;25.40;83.60;;;;;;5087912;28;20057;-45
2022/05/23 09:53:24;;;;;;;5.70;3.10;;;25.50;82.90;;;;;;5095051;28;20039;-46
2022/05/23 09:55:51;;;;;;;6.53;2.92;;;25.20;80.20;;;;;;5089628;28;20097;-46
2022/05/23 09:58:31;;;;;;;4.82;2.55;;;25.40;81.10;;;;;;5092413;28;20078;-46
2022/05/23 10:01:04;;;;;;;7.13;2.78;;;25.70;81.10;;;;;;5094774;28;20492;-46
2022/05/23 10:03:31;;;;;;;5.47;4.18;;;25.80;78.30;;;;;;5073239;28;20119;-45
2022/05/23 10:06:11;;;;;;;3.20;2.63;;;25.50;81.00;;;;;;5082562;28;20093;-45
2022/05/23 10:08:40;;;;;;;4.70;3.17;;;25.80;81.50;;;;;;5074932;28;20451;-46
2022/05/23 10:11:29;;;;;;;4.07;2.85;;;25.20;80.10;;;;;;5068071;28;20127;-47
2022/05/23 10:14:00;;;;;;;4.30;1.92;;;24.90;77.00;;;;;;5073746;28;20467;-46
2022/05/23 10:16:28;;;;;;;3.63;2.55;;;24.80;77.00;;;;;;5062832;28;20072;-47
2022/05/23 10:19:02;;;;;;;7.40;2.50;;;25.00;77.50;;;;;;5069078;28;20040;-47
2022/05/23 10:21:31;;;;;;;4.22;2.58;;;25.30;79.40;;;;;;5076137;28;20189;-46
2022/05/23 10:24:05;;;;;;;4.28;2.80;;;25.50;78.90;;;;;;5077066;28;20486;-46
2022/05/23 10:26:35;;;;;;;4.43;2.15;;;25.40;74.70;;;;;;5080949;28;20445;-47
2022/05/23 10:29:26;;;;;;;4.15;3.47;;;25.80;79.00;;;;;;5068377;28;20109;-49
2022/05/23 10:31:58;;;;;;;5.28;3.22;;;25.60;76.00;;;;;;5080134;28;20047;-45
2022/05/23 10:34:39;;;;;;;2.40;2.17;;;25.60;77.40;;;;;;5077095;28;20040;-45
2022/05/23 10:37:09;;;;;;;2.58;2.30;;;25.90;75.70;;;;;;5079846;28;20036;-46
2022/05/23 10:43:00;;;;;;;4.10;2.40;;;25.80;73.30;;;;;;5074605;28;20136;-45
2022/05/23 10:45:32;;;;;;;;;;;25.70;73.30;;;;;;5080164;28;20059;-46
2022/05/23 10:48:01;;;;;;;4.28;2.15;;;25.90;75.40;;;;;;5077882;28;19994;-46
2022/05/23 10:50:44;;;;;;;3.75;2.05;;;26.10;75.10;;;;;;5077675;28;20101;-45
2022/05/23 10:53:37;;;;;;;4.93;2.10;;;26.10;71.90;;;;;;5078669;28;20766;-46
2022/05/23 10:56:28;;;;;;;3.47;1.98;;;26.20;72.30;;;;;;5054915;28;20044;-46
2022/05/23 10:58:59;;;;;;;3.60;1.98;;;26.20;72.80;;;;;;5075037;28;20045;-46
2022/05/23 11:01:48;;;;;;;6.82;2.50;;;26.40;72.30;;;;;;5067088;28;20055;-47
2022/05/23 11:04:48;;;;;;;4.05;2.40;;;26.50;72.50;;;;;;5076057;28;20399;-45
2022/05/23 11:07:34;;;;;;;4.90;2.50;;;26.80;71.50;;;;;;5072517;28;20040;-47
2022/05/23 11:10:29;;;;;;;4.40;2.55;;;26.60;72.90;;;;;;5068318;28;20089;-47
2022/05/23 11:13:06;;;;;;;6.18;2.70;;;26.60;70.50;;;;;;5069515;28;20124;-44
2022/05/23 11:15:41;;;;;;;4.78;2.88;;;26.20;74.90;;;;;;5052316;28;20041;-46
2022/05/23 11:18:36;;;;;;;3.97;2.45;;;26.30;72.50;;;;;;5052485;28;20073;-46
2022/05/23 11:21:07;;;;;;;4.00;2.40;;;26.30;72.00;;;;;;5052658;28;20133;-46
2022/05/23 11:23:36;;;;;;;4.15;2.00;;;26.20;73.90;;;;;;5052413;28;20047;-46
2022/05/23 11:26:22;;;;;;;2.92;2.00;;;26.40;71.80;;;;;;5052541;28;20041;-45
2022/05/23 11:34:39;;;;;;;5.07;2.22;;;27.20;70.50;;;;;;5071737;28;20126;-46
2022/05/23 11:37:42;;;;;;;3.88;2.28;;;27.20;70.40;;;;;;5072015;28;20130;-46
2022/05/23 11:39:58;;;;;;;3.25;2.28;;;27.00;69.90;;;;;;5068466;28;20498;-46
2022/05/23 11:42:30;;;;;;;2.08;1.90;;;26.90;71.00;;;;;;5071713;28;20044;-46
2022/05/23 11:44:57;;;;;;;4.72;2.10;;;27.00;68.90;;;;;;5054798;28;20380;-46
2022/05/23 11:47:46;;;;;;;2.92;2.00;;;27.00;68.90;;;;;;5058422;28;20047;-45
2022/05/23 11:50:32;;;;;;;5.13;2.20;;;27.10;67.60;;;;;;5051884;28;20045;-48
2022/05/23 11:53:04;;;;;;;3.38;2.20;;;27.00;68.60;;;;;;5052072;28;20049;-46
2022/05/23 11:55:52;;;;;;;4.40;2.40;;;26.70;69.60;;;;;;5052245;28;20037;-46
2022/05/23 11:58:36;;;;;;;5.75;2.13;;;26.50;68.80;;;;;;5050096;28;20057;-46
2022/05/23 12:01:14;;;;;;;3.42;2.58;;;26.60;69.90;;;;;;5051688;28;20506;-46
2022/05/23 12:03:52;;;;;;;4.10;2.45;;;26.30;69.50;;;;;;5055664;28;20045;-48
2022/05/23 12:06:22;;;;;;;4.18;2.00;;;26.30;69.50;;;;;;5061650;28;20452;-46
2022/05/23 12:09:05;;;;;;;5.03;2.45;;;26.40;72.90;;;;;;5066546;28;20048;-47
2022/05/23 12:11:36;;;;;;;4.25;2.50;;;26.40;71.50;;;;;;5065447;28;20043;-46
2022/05/23 12:14:14;;;;;;;4.00;2.35;;;26.50;71.20;;;;;;5051220;28;20073;-45
2022/05/23 12:17:05;;;;;;;4.15;2.55;;;26.40;71.60;;;;;;5051496;28;20037;-47
2022/05/23 12:19:51;;;;;;;4.88;2.33;;;26.30;71.40;;;;;;5067346;28;20131;-48
2022/05/23 12:22:24;;;;;;;33.95;6.75;;;26.20;71.90;;;;;;5071478;28;20047;-47
2022/05/23 12:25:08;;;;;;;4.70;2.72;;;26.00;72.50;;;;;;5066178;28;20119;-47
2022/05/23 12:27:42;;;;;;;4.20;2.60;;;25.80;74.00;;;;;;5060210;28;20063;-46
2022/05/23 12:30:17;;;;;;;10.10;3.42;;;25.70;74.50;;;;;;5070862;28;20044;-45
2022/05/23 12:32:47;;;;;;;14.63;3.72;;;25.80;76.80;;;;;;5066279;28;20048;-46
2022/05/23 12:35:15;;;;;;;29.00;5.95;;;25.50;75.40;;;;;;5070324;28;20041;-45
2022/05/23 12:38:20;;;;;;;7.30;2.88;;;25.80;75.50;;;;;;5070012;28;20120;-44
2022/05/23 12:41:07;;;;;;;5.30;3.10;;;25.90;75.40;;;;;;5069311;28;20047;-48
2022/05/23 12:44:13;;;;;;;49.42;9.20;;;26.00;75.00;;;;;;5083266;28;20374;-47
2022/05/23 12:47:07;;;;;;;86.15;12.40;;;25.80;75.60;;;;;;5091709;28;20044;-45
2022/05/23 12:49:45;;;;;;;22.90;5.13;;;25.70;76.40;;;;;;5078601;28;20044;-46
2022/05/23 12:52:40;;;;;;;4.82;3.10;;;25.50;78.10;;;;;;5065228;28;20488;-46
2022/05/23 12:55:47;;;;;;;4.13;3.10;;;25.60;78.50;;;;;;5091164;28;20048;-46
2022/05/23 12:58:20;;;;;;;5.78;3.20;;;25.60;78.30;;;;;;5084224;28;20086;-45
2022/05/23 13:01:01;;;;;;;5.70;4.07;;;25.40;78.00;;;;;;5067623;28;20053;-46
2022/05/23 13:03:34;;;;;;;5.15;3.50;;;25.20;77.30;;;;;;5067455;28;20049;-45
2022/05/23 13:06:22;;;;;;;7.25;4.05;;;25.20;78.40;;;;;;5068209;28;20191;-46
2022/05/23 13:08:58;;;;;;;3.80;3.40;;;25.10;81.50;;;;;;5067813;28;20152;-48
2022/05/23 13:11:33;;;;;;;5.85;3.50;;;25.00;82.30;;;;;;5068016;28;20071;-49
2022/05/23 13:13:58;;;;;;;6.10;3.90;;;25.10;83.40;;;;;;5067915;28;20149;-48
2022/05/23 13:16:33;;;;;;;4.85;3.15;;;25.10;83.30;;;;;;5068117;28;20457;-47
2022/05/23 13:22:05;;;;;;;5.60;3.40;;;25.10;83.70;;;;;;5066642;28;20109;-46
2022/05/23 13:24:48;;;;;;;8.02;3.17;;;25.00;85.20;;;;;;5068289;28;20119;-44
2022/05/23 13:27:19;;;;;;;4.30;3.22;;;25.20;85.10;;;;;;5068446;28;20060;-45
2022/05/23 13:29:49;;;;;;;8.35;3.30;;;25.00;84.60;;;;;;5063973;28;20119;-46
2022/05/23 13:32:17;;;;;;;5.28;3.00;;;25.20;85.80;;;;;;5072247;28;20091;-44
2022/05/23 13:34:44;;;;;;;5.00;2.70;;;25.20;86.00;;;;;;5066809;28;20057;-46
2022/05/23 13:37:22;;;;;;;5.45;3.17;;;25.10;83.80;;;;;;5067447;28;20155;-45
2022/05/23 13:39:48;;;;;;;4.22;3.05;;;25.00;82.90;;;;;;5066903;28;20107;-47
2022/05/23 13:42:32;;;;;;;5.83;3.30;;;25.20;84.00;;;;;;5055692;28;20049;-45
2022/05/23 13:45:27;;;;;;;4.13;3.33;;;25.20;85.70;;;;;;5073503;28;20487;-48
2022/05/23 13:48:03;;;;;;;6.68;3.17;;;25.30;86.10;;;;;;5063199;28;20044;-45
2022/05/23 13:50:40;;;;;;;4.25;2.75;;;25.30;85.20;;;;;;5071853;28;20402;-45
2022/05/23 13:53:10;;;;;;;4.72;3.42;;;25.40;86.50;;;;;;5075297;28;20544;-45
2022/05/23 13:55:39;;;;;;;7.10;3.47;;;25.30;84.30;;;;;;5073448;28;20444;-46
2022/05/23 13:58:13;;;;;;;3.53;3.00;;;25.20;85.20;;;;;;5088645;28;20084;-45
2022/05/23 14:00:42;;;;;;;4.78;3.17;;;25.20;84.90;;;;;;5049580;28;20048;-49
2022/05/23 14:03:17;;;;;;;3.80;2.72;;;25.10;85.00;;;;;;5091429;28;20560;-45
2022/05/23 14:05:49;;;;;;;6.30;3.20;;;25.20;87.70;;;;;;5064016;28;20146;-46
2022/05/23 14:08:16;;;;;;;4.97;3.20;;;25.20;87.10;;;;;;5074220;28;20048;-46
2022/05/23 14:10:44;;;;;;;4.63;2.78;;;25.30;87.70;;;;;;5065907;28;20413;-46
2022/05/23 14:13:12;;;;;;;4.93;3.10;;;25.00;88.50;;;;;;5054227;28;20498;-46
2022/05/23 14:15:42;;;;;;;28.38;5.60;;;25.10;88.20;;;;;;5072702;28;20493;-45
2022/05/23 14:18:13;;;;;;;7.40;3.10;;;24.90;88.60;;;;;;5058384;28;20049;-46